sensor_id;sensor_type;location;lat;lon;timestamp;temperature;humidity
75819;DHT22;64453;51.944;9.796;2023-04-03T00:02:06;10.90;35.60
75819;DHT22;64453;51.944;9.796;2023-04-03T00:04:33;10.90;35.30
75819;DHT22;64453;51.944;9.796;2023-04-03T00:07:00;10.90;35.50
75819;DHT22;64453;51.944;9.796;2023-04-03T00:09:28;10.80;35.70
75819;DHT22;64453;51.944;9.796;2023-04-03T00:11:55;10.90;35.50
75819;DHT22;64453;51.944;9.796;2023-04-03T00:14:22;10.80;35.10
75819;DHT22;64453;51.944;9.796;2023-04-03T00:16:49;10.90;35.50
75819;DHT22;64453;51.944;9.796;2023-04-03T00:19:16;10.80;35.90
75819;DHT22;64453;51.944;9.796;2023-04-03T00:21:42;10.80;35.80
75819;DHT22;64453;51.944;9.796;2023-04-03T00:24:10;10.70;35.80
75819;DHT22;64453;51.944;9.796;2023-04-03T00:26:38;10.60;35.50
75819;DHT22;64453;51.944;9.796;2023-04-03T00:29:05;10.00;36.50
75819;DHT22;64453;51.944;9.796;2023-04-03T00:31:32;10.20;36.60
75819;DHT22;64453;51.944;9.796;2023-04-03T00:33:59;10.40;36.50
75819;DHT22;64453;51.944;9.796;2023-04-03T00:36:25;10.20;35.90
75819;DHT22;64453;51.944;9.796;2023-04-03T00:38:52;10.40;36.10
75819;DHT22;64453;51.944;9.796;2023-04-03T00:41:19;9.60;38.00
75819;DHT22;64453;51.944;9.796;2023-04-03T00:43:48;9.90;38.10
75819;DHT22;64453;51.944;9.796;2023-04-03T00:46:14;10.00;37.00
75819;DHT22;64453;51.944;9.796;2023-04-03T00:48:42;10.30;36.60
75819;DHT22;64453;51.944;9.796;2023-04-03T00:51:13;10.30;36.50
75819;DHT22;64453;51.944;9.796;2023-04-03T00:53:44;9.90;36.90
75819;DHT22;64453;51.944;9.796;2023-04-03T00:56:15;10.10;36.60
75819;DHT22;64453;51.944;9.796;2023-04-03T00:58:48;10.20;36.00
75819;DHT22;64453;51.944;9.796;2023-04-03T01:01:21;10.30;36.30
75819;DHT22;64453;51.944;9.796;2023-04-03T01:03:50;10.10;35.90
75819;DHT22;64453;51.944;9.796;2023-04-03T01:06:20;10.20;36.20
75819;DHT22;64453;51.944;9.796;2023-04-03T01:08:50;9.80;37.40
75819;DHT22;64453;51.944;9.796;2023-04-03T01:11:18;10.10;36.60
75819;DHT22;64453;51.944;9.796;2023-04-03T01:13:47;9.80;36.90
75819;DHT22;64453;51.944;9.796;2023-04-03T01:16:14;9.70;37.40
75819;DHT22;64453;51.944;9.796;2023-04-03T01:18:42;9.90;37.40
75819;DHT22;64453;51.944;9.796;2023-04-03T01:21:54;10.00;36.90
75819;DHT22;64453;51.944;9.796;2023-04-03T01:24:34;10.00;36.80
75819;DHT22;64453;51.944;9.796;2023-04-03T01:27:04;10.00;36.70
75819;DHT22;64453;51.944;9.796;2023-04-03T01:29:34;9.70;37.50
75819;DHT22;64453;51.944;9.796;2023-04-03T01:32:03;9.80;37.90
75819;DHT22;64453;51.944;9.796;2023-04-03T01:37:11;9.80;37.40
75819;DHT22;64453;51.944;9.796;2023-04-03T01:39:38;9.90;37.90
75819;DHT22;64453;51.944;9.796;2023-04-03T01:42:05;9.40;38.40
75819;DHT22;64453;51.944;9.796;2023-04-03T01:44:32;9.30;38.60
75819;DHT22;64453;51.944;9.796;2023-04-03T01:46:59;9.40;39.00
75819;DHT22;64453;51.944;9.796;2023-04-03T01:49:28;9.50;38.80
75819;DHT22;64453;51.944;9.796;2023-04-03T01:51:55;9.10;39.20
75819;DHT22;64453;51.944;9.796;2023-04-03T01:54:22;8.90;39.20
75819;DHT22;64453;51.944;9.796;2023-04-03T01:56:48;8.50;39.80
75819;DHT22;64453;51.944;9.796;2023-04-03T01:59:15;7.50;40.90
75819;DHT22;64453;51.944;9.796;2023-04-03T02:01:43;8.30;41.00
75819;DHT22;64453;51.944;9.796;2023-04-03T02:04:10;7.80;40.40
75819;DHT22;64453;51.944;9.796;2023-04-03T02:06:39;8.30;40.30
75819;DHT22;64453;51.944;9.796;2023-04-03T02:09:06;7.80;40.80
75819;DHT22;64453;51.944;9.796;2023-04-03T02:11:35;8.30;40.20
75819;DHT22;64453;51.944;9.796;2023-04-03T02:14:02;8.10;39.70
75819;DHT22;64453;51.944;9.796;2023-04-03T02:16:29;8.00;41.10
75819;DHT22;64453;51.944;9.796;2023-04-03T02:18:56;7.90;41.60
75819;DHT22;64453;51.944;9.796;2023-04-03T02:21:23;8.80;41.00
75819;DHT22;64453;51.944;9.796;2023-04-03T02:23:51;8.70;40.20
75819;DHT22;64453;51.944;9.796;2023-04-03T02:26:18;9.10;39.40
75819;DHT22;64453;51.944;9.796;2023-04-03T02:28:46;9.20;39.10
75819;DHT22;64453;51.944;9.796;2023-04-03T02:31:13;8.70;38.60
75819;DHT22;64453;51.944;9.796;2023-04-03T02:33:40;9.20;39.40
75819;DHT22;64453;51.944;9.796;2023-04-03T02:36:07;9.30;40.20
75819;DHT22;64453;51.944;9.796;2023-04-03T02:38:35;8.90;40.10
75819;DHT22;64453;51.944;9.796;2023-04-03T02:41:04;8.90;39.90
75819;DHT22;64453;51.944;9.796;2023-04-03T02:43:32;8.60;40.10
75819;DHT22;64453;51.944;9.796;2023-04-03T02:46:00;8.50;40.00
75819;DHT22;64453;51.944;9.796;2023-04-03T02:48:27;8.20;40.20
75819;DHT22;64453;51.944;9.796;2023-04-03T02:50:54;8.30;41.00
75819;DHT22;64453;51.944;9.796;2023-04-03T02:53:21;8.50;40.70
75819;DHT22;64453;51.944;9.796;2023-04-03T02:55:48;8.30;40.70
75819;DHT22;64453;51.944;9.796;2023-04-03T02:58:17;8.10;41.60
75819;DHT22;64453;51.944;9.796;2023-04-03T03:00:43;8.40;41.60
75819;DHT22;64453;51.944;9.796;2023-04-03T03:03:10;8.60;41.00
75819;DHT22;64453;51.944;9.796;2023-04-03T03:05:38;8.70;40.60
75819;DHT22;64453;51.944;9.796;2023-04-03T03:08:05;8.60;40.40
75819;DHT22;64453;51.944;9.796;2023-04-03T03:10:32;8.00;40.30
75819;DHT22;64453;51.944;9.796;2023-04-03T03:12:59;7.50;40.70
75819;DHT22;64453;51.944;9.796;2023-04-03T03:15:27;7.90;41.20
75819;DHT22;64453;51.944;9.796;2023-04-03T03:17:54;7.90;41.20
75819;DHT22;64453;51.944;9.796;2023-04-03T03:20:21;8.40;40.90
75819;DHT22;64453;51.944;9.796;2023-04-03T03:22:48;8.70;40.50
75819;DHT22;64453;51.944;9.796;2023-04-03T03:25:15;8.30;40.50
75819;DHT22;64453;51.944;9.796;2023-04-03T03:27:42;8.30;40.60
75819;DHT22;64453;51.944;9.796;2023-04-03T03:30:09;8.60;40.30
75819;DHT22;64453;51.944;9.796;2023-04-03T03:32:38;8.80;40.30
75819;DHT22;64453;51.944;9.796;2023-04-03T03:35:05;8.70;40.40
75819;DHT22;64453;51.944;9.796;2023-04-03T03:37:32;8.70;40.20
75819;DHT22;64453;51.944;9.796;2023-04-03T03:39:58;8.60;39.90
75819;DHT22;64453;51.944;9.796;2023-04-03T03:42:25;7.90;40.00
75819;DHT22;64453;51.944;9.796;2023-04-03T03:44:52;8.30;40.80
75819;DHT22;64453;51.944;9.796;2023-04-03T03:47:19;8.30;40.70
75819;DHT22;64453;51.944;9.796;2023-04-03T03:49:47;8.20;41.60
75819;DHT22;64453;51.944;9.796;2023-04-03T03:52:14;7.80;40.60
75819;DHT22;64453;51.944;9.796;2023-04-03T03:54:41;8.20;40.70
75819;DHT22;64453;51.944;9.796;2023-04-03T03:57:08;8.50;40.20
75819;DHT22;64453;51.944;9.796;2023-04-03T03:59:35;8.80;39.70
75819;DHT22;64453;51.944;9.796;2023-04-03T04:02:01;8.40;40.20
75819;DHT22;64453;51.944;9.796;2023-04-03T04:04:28;8.50;40.10
75819;DHT22;64453;51.944;9.796;2023-04-03T04:06:56;8.50;40.20
75819;DHT22;64453;51.944;9.796;2023-04-03T04:09:25;8.20;40.50
75819;DHT22;64453;51.944;9.796;2023-04-03T04:11:52;7.90;40.50
75819;DHT22;64453;51.944;9.796;2023-04-03T04:14:19;8.10;41.10
75819;DHT22;64453;51.944;9.796;2023-04-03T04:16:46;8.20;40.80
75819;DHT22;64453;51.944;9.796;2023-04-03T04:19:13;7.40;41.70
75819;DHT22;64453;51.944;9.796;2023-04-03T04:21:41;7.80;41.20
75819;DHT22;64453;51.944;9.796;2023-04-03T04:24:09;8.10;41.20
75819;DHT22;64453;51.944;9.796;2023-04-03T04:26:36;7.10;42.30
75819;DHT22;64453;51.944;9.796;2023-04-03T04:29:03;7.40;43.20
75819;DHT22;64453;51.944;9.796;2023-04-03T04:31:30;7.60;42.80
75819;DHT22;64453;51.944;9.796;2023-04-03T04:33:56;7.80;41.60
75819;DHT22;64453;51.944;9.796;2023-04-03T04:36:23;8.20;41.00
75819;DHT22;64453;51.944;9.796;2023-04-03T04:38:50;8.10;40.60
75819;DHT22;64453;51.944;9.796;2023-04-03T04:41:19;8.20;40.80
75819;DHT22;64453;51.944;9.796;2023-04-03T04:43:47;8.30;40.80
75819;DHT22;64453;51.944;9.796;2023-04-03T04:46:14;8.10;41.30
75819;DHT22;64453;51.944;9.796;2023-04-03T04:48:41;7.80;41.30
75819;DHT22;64453;51.944;9.796;2023-04-03T04:51:09;8.00;40.90
75819;DHT22;64453;51.944;9.796;2023-04-03T04:53:37;7.80;41.00
75819;DHT22;64453;51.944;9.796;2023-04-03T04:56:04;8.20;41.00
75819;DHT22;64453;51.944;9.796;2023-04-03T04:58:32;8.10;40.90
75819;DHT22;64453;51.944;9.796;2023-04-03T05:01:00;7.80;40.90
75819;DHT22;64453;51.944;9.796;2023-04-03T05:03:27;7.90;40.50
75819;DHT22;64453;51.944;9.796;2023-04-03T05:05:54;8.40;40.50
75819;DHT22;64453;51.944;9.796;2023-04-03T05:08:21;8.40;40.40
75819;DHT22;64453;51.944;9.796;2023-04-03T05:10:48;8.30;40.20
75819;DHT22;64453;51.944;9.796;2023-04-03T05:13:14;8.30;41.00
75819;DHT22;64453;51.944;9.796;2023-04-03T05:15:43;8.10;40.60
75819;DHT22;64453;51.944;9.796;2023-04-03T05:18:09;7.60;40.30
75819;DHT22;64453;51.944;9.796;2023-04-03T05:20:36;7.30;42.00
75819;DHT22;64453;51.944;9.796;2023-04-03T05:23:03;7.50;41.90
75819;DHT22;64453;51.944;9.796;2023-04-03T05:25:31;7.80;41.20
75819;DHT22;64453;51.944;9.796;2023-04-03T05:27:58;8.00;41.30
75819;DHT22;64453;51.944;9.796;2023-04-03T05:30:25;8.00;40.90
75819;DHT22;64453;51.944;9.796;2023-04-03T05:32:53;7.80;41.80
75819;DHT22;64453;51.944;9.796;2023-04-03T05:35:20;7.20;41.60
75819;DHT22;64453;51.944;9.796;2023-04-03T05:37:46;7.20;41.90
75819;DHT22;64453;51.944;9.796;2023-04-03T05:40:13;7.60;42.20
75819;DHT22;64453;51.944;9.796;2023-04-03T05:42:40;8.00;41.90
75819;DHT22;64453;51.944;9.796;2023-04-03T05:45:08;8.10;41.10
75819;DHT22;64453;51.944;9.796;2023-04-03T05:47:35;8.20;41.10
75819;DHT22;64453;51.944;9.796;2023-04-03T05:50:03;8.30;40.70
75819;DHT22;64453;51.944;9.796;2023-04-03T05:52:33;8.50;41.20
75819;DHT22;64453;51.944;9.796;2023-04-03T05:55:02;8.00;41.50
75819;DHT22;64453;51.944;9.796;2023-04-03T05:57:29;7.80;41.70
75819;DHT22;64453;51.944;9.796;2023-04-03T05:59:56;7.80;41.30
75819;DHT22;64453;51.944;9.796;2023-04-03T06:02:24;8.20;42.50
75819;DHT22;64453;51.944;9.796;2023-04-03T06:04:51;8.00;41.80
75819;DHT22;64453;51.944;9.796;2023-04-03T06:07:22;8.30;41.40
75819;DHT22;64453;51.944;9.796;2023-04-03T06:09:52;8.30;40.40
75819;DHT22;64453;51.944;9.796;2023-04-03T06:12:19;8.20;41.30
75819;DHT22;64453;51.944;9.796;2023-04-03T06:14:47;8.10;41.00
75819;DHT22;64453;51.944;9.796;2023-04-03T06:17:14;7.90;41.40
75819;DHT22;64453;51.944;9.796;2023-04-03T06:19:41;8.20;41.40
75819;DHT22;64453;51.944;9.796;2023-04-03T06:22:08;8.40;41.00
75819;DHT22;64453;51.944;9.796;2023-04-03T06:24:36;8.40;41.40
75819;DHT22;64453;51.944;9.796;2023-04-03T06:27:03;8.40;40.70
75819;DHT22;64453;51.944;9.796;2023-04-03T06:29:30;8.60;40.80
75819;DHT22;64453;51.944;9.796;2023-04-03T06:31:57;8.20;39.80
75819;DHT22;64453;51.944;9.796;2023-04-03T06:34:24;8.80;40.20
75819;DHT22;64453;51.944;9.796;2023-04-03T06:36:51;8.60;40.60
75819;DHT22;64453;51.944;9.796;2023-04-03T06:39:20;8.80;40.30
75819;DHT22;64453;51.944;9.796;2023-04-03T06:41:51;8.80;39.90
75819;DHT22;64453;51.944;9.796;2023-04-03T06:44:18;8.80;39.60
75819;DHT22;64453;51.944;9.796;2023-04-03T06:46:45;8.80;40.10
75819;DHT22;64453;51.944;9.796;2023-04-03T06:49:12;8.60;39.80
75819;DHT22;64453;51.944;9.796;2023-04-03T06:51:40;8.20;40.70
75819;DHT22;64453;51.944;9.796;2023-04-03T06:54:07;8.40;40.60
75819;DHT22;64453;51.944;9.796;2023-04-03T06:56:34;8.20;40.30
75819;DHT22;64453;51.944;9.796;2023-04-03T06:59:03;8.00;40.20
75819;DHT22;64453;51.944;9.796;2023-04-03T07:01:30;8.40;40.30
75819;DHT22;64453;51.944;9.796;2023-04-03T07:03:57;8.90;40.00
75819;DHT22;64453;51.944;9.796;2023-04-03T07:06:25;8.70;39.20
75819;DHT22;64453;51.944;9.796;2023-04-03T07:08:52;8.70;40.40
75819;DHT22;64453;51.944;9.796;2023-04-03T07:11:20;8.20;41.10
75819;DHT22;64453;51.944;9.796;2023-04-03T07:13:46;8.70;40.80
75819;DHT22;64453;51.944;9.796;2023-04-03T07:16:15;9.00;39.80
75819;DHT22;64453;51.944;9.796;2023-04-03T07:18:41;9.30;39.20
75819;DHT22;64453;51.944;9.796;2023-04-03T07:21:08;9.30;38.70
75819;DHT22;64453;51.944;9.796;2023-04-03T07:23:35;9.30;39.10
75819;DHT22;64453;51.944;9.796;2023-04-03T07:26:02;9.30;39.20
75819;DHT22;64453;51.944;9.796;2023-04-03T07:28:30;9.50;39.40
75819;DHT22;64453;51.944;9.796;2023-04-03T07:31:01;9.60;39.30
75819;DHT22;64453;51.944;9.796;2023-04-03T07:33:30;9.70;38.30
75819;DHT22;64453;51.944;9.796;2023-04-03T07:35:58;9.60;38.60
75819;DHT22;64453;51.944;9.796;2023-04-03T07:38:25;9.70;38.60
75819;DHT22;64453;51.944;9.796;2023-04-03T07:40:52;9.70;38.30
75819;DHT22;64453;51.944;9.796;2023-04-03T07:43:20;9.80;38.40
75819;DHT22;64453;51.944;9.796;2023-04-03T07:45:50;10.00;37.40
75819;DHT22;64453;51.944;9.796;2023-04-03T07:48:18;10.00;37.40
75819;DHT22;64453;51.944;9.796;2023-04-03T07:50:47;9.90;38.00
75819;DHT22;64453;51.944;9.796;2023-04-03T07:53:14;10.00;37.20
75819;DHT22;64453;51.944;9.796;2023-04-03T07:55:41;9.90;37.70
75819;DHT22;64453;51.944;9.796;2023-04-03T07:58:09;10.00;37.00
75819;DHT22;64453;51.944;9.796;2023-04-03T08:00:37;9.60;37.90
75819;DHT22;64453;51.944;9.796;2023-04-03T08:03:05;9.90;37.70
75819;DHT22;64453;51.944;9.796;2023-04-03T08:05:36;10.10;36.80
75819;DHT22;64453;51.944;9.796;2023-04-03T08:08:05;10.40;37.20
75819;DHT22;64453;51.944;9.796;2023-04-03T08:10:32;10.30;37.40
75819;DHT22;64453;51.944;9.796;2023-04-03T08:13:00;10.40;37.10
75819;DHT22;64453;51.944;9.796;2023-04-03T08:15:27;10.50;36.80
75819;DHT22;64453;51.944;9.796;2023-04-03T08:17:56;10.50;36.50
75819;DHT22;64453;51.944;9.796;2023-04-03T08:20:22;10.60;37.00
75819;DHT22;64453;51.944;9.796;2023-04-03T08:22:50;10.80;36.40
75819;DHT22;64453;51.944;9.796;2023-04-03T08:25:18;10.70;36.70
75819;DHT22;64453;51.944;9.796;2023-04-03T08:27:45;10.60;36.80
75819;DHT22;64453;51.944;9.796;2023-04-03T08:30:12;10.90;37.30
75819;DHT22;64453;51.944;9.796;2023-04-03T08:32:39;10.50;35.70
75819;DHT22;64453;51.944;9.796;2023-04-03T08:35:08;10.50;36.60
75819;DHT22;64453;51.944;9.796;2023-04-03T08:37:35;10.70;36.80
75819;DHT22;64453;51.944;9.796;2023-04-03T08:40:03;10.90;36.70
75819;DHT22;64453;51.944;9.796;2023-04-03T08:42:40;10.90;38.00
75819;DHT22;64453;51.944;9.796;2023-04-03T08:45:12;10.70;36.60
75819;DHT22;64453;51.944;9.796;2023-04-03T08:47:46;10.40;36.10
75819;DHT22;64453;51.944;9.796;2023-04-03T08:50:18;11.00;36.40
75819;DHT22;64453;51.944;9.796;2023-04-03T08:52:48;11.20;36.90
75819;DHT22;64453;51.944;9.796;2023-04-03T08:55:22;10.90;35.50
75819;DHT22;64453;51.944;9.796;2023-04-03T08:57:59;10.30;36.40
75819;DHT22;64453;51.944;9.796;2023-04-03T09:00:30;10.00;36.40
75819;DHT22;64453;51.944;9.796;2023-04-03T09:03:01;10.50;36.90
75819;DHT22;64453;51.944;9.796;2023-04-03T09:05:35;10.80;36.40
75819;DHT22;64453;51.944;9.796;2023-04-03T09:08:14;10.90;35.30
75819;DHT22;64453;51.944;9.796;2023-04-03T09:10:49;11.00;34.50
75819;DHT22;64453;51.944;9.796;2023-04-03T09:13:24;10.90;34.60
75819;DHT22;64453;51.944;9.796;2023-04-03T09:15:54;10.70;34.20
75819;DHT22;64453;51.944;9.796;2023-04-03T09:18:26;10.80;34.40
75819;DHT22;64453;51.944;9.796;2023-04-03T09:21:01;11.20;34.40
75819;DHT22;64453;51.944;9.796;2023-04-03T09:23:38;11.20;34.60
75819;DHT22;64453;51.944;9.796;2023-04-03T09:26:13;11.30;34.40
75819;DHT22;64453;51.944;9.796;2023-04-03T09:28:43;11.50;34.50
75819;DHT22;64453;51.944;9.796;2023-04-03T09:31:18;11.50;33.40
75819;DHT22;64453;51.944;9.796;2023-04-03T09:33:50;11.50;32.70
75819;DHT22;64453;51.944;9.796;2023-04-03T09:36:41;11.70;33.00
75819;DHT22;64453;51.944;9.796;2023-04-03T09:39:13;11.70;32.60
75819;DHT22;64453;51.944;9.796;2023-04-03T09:41:42;11.80;32.50
75819;DHT22;64453;51.944;9.796;2023-04-03T09:44:25;11.80;32.00
75819;DHT22;64453;51.944;9.796;2023-04-03T09:46:53;11.80;32.20
75819;DHT22;64453;51.944;9.796;2023-04-03T09:49:20;10.80;32.20
75819;DHT22;64453;51.944;9.796;2023-04-03T09:51:47;10.30;33.30
75819;DHT22;64453;51.944;9.796;2023-04-03T09:54:29;10.60;33.50
75819;DHT22;64453;51.944;9.796;2023-04-03T09:57:01;11.10;33.50
75819;DHT22;64453;51.944;9.796;2023-04-03T09:59:34;11.50;33.90
75819;DHT22;64453;51.944;9.796;2023-04-03T10:02:12;10.60;31.10
75819;DHT22;64453;51.944;9.796;2023-04-03T10:05:04;10.20;32.00
75819;DHT22;64453;51.944;9.796;2023-04-03T10:07:33;9.80;33.70
75819;DHT22;64453;51.944;9.796;2023-04-03T10:10:14;10.10;31.30
75819;DHT22;64453;51.944;9.796;2023-04-03T10:12:43;11.00;31.60
75819;DHT22;64453;51.944;9.796;2023-04-03T10:15:13;11.30;31.10
75819;DHT22;64453;51.944;9.796;2023-04-03T10:17:53;11.50;31.20
75819;DHT22;64453;51.944;9.796;2023-04-03T10:20:29;11.70;30.30
75819;DHT22;64453;51.944;9.796;2023-04-03T10:23:14;11.80;30.80
75819;DHT22;64453;51.944;9.796;2023-04-03T10:25:50;11.80;30.00
75819;DHT22;64453;51.944;9.796;2023-04-03T10:28:29;11.80;30.00
75819;DHT22;64453;51.944;9.796;2023-04-03T10:31:04;12.00;30.70
75819;DHT22;64453;51.944;9.796;2023-04-03T10:33:45;12.00;29.50
75819;DHT22;64453;51.944;9.796;2023-04-03T10:36:27;12.10;30.70
75819;DHT22;64453;51.944;9.796;2023-04-03T10:39:02;12.30;29.80
75819;DHT22;64453;51.944;9.796;2023-04-03T10:41:43;12.40;29.40
75819;DHT22;64453;51.944;9.796;2023-04-03T10:44:20;12.30;28.70
75819;DHT22;64453;51.944;9.796;2023-04-03T10:47:00;12.20;29.00
75819;DHT22;64453;51.944;9.796;2023-04-03T10:49:39;12.40;29.20
75819;DHT22;64453;51.944;9.796;2023-04-03T10:52:17;12.50;29.20
75819;DHT22;64453;51.944;9.796;2023-04-03T10:54:53;12.10;28.10
75819;DHT22;64453;51.944;9.796;2023-04-03T10:57:25;12.30;29.20
75819;DHT22;64453;51.944;9.796;2023-04-03T10:59:57;12.00;27.90
75819;DHT22;64453;51.944;9.796;2023-04-03T11:02:30;12.10;29.10
75819;DHT22;64453;51.944;9.796;2023-04-03T11:05:01;11.80;28.90
75819;DHT22;64453;51.944;9.796;2023-04-03T11:07:38;11.30;27.90
75819;DHT22;64453;51.944;9.796;2023-04-03T11:10:14;11.00;28.20
75819;DHT22;64453;51.944;9.796;2023-04-03T11:12:48;10.90;30.00
75819;DHT22;64453;51.944;9.796;2023-04-03T11:15:18;10.90;28.70
75819;DHT22;64453;51.944;9.796;2023-04-03T11:17:53;11.60;29.10
75819;DHT22;64453;51.944;9.796;2023-04-03T11:20:24;12.00;29.40
75819;DHT22;64453;51.944;9.796;2023-04-03T11:22:58;12.10;29.10
75819;DHT22;64453;51.944;9.796;2023-04-03T11:25:30;12.50;29.10
75819;DHT22;64453;51.944;9.796;2023-04-03T11:27:59;12.20;28.90
75819;DHT22;64453;51.944;9.796;2023-04-03T11:30:31;12.30;29.20
75819;DHT22;64453;51.944;9.796;2023-04-03T11:33:27;11.90;28.30
75819;DHT22;64453;51.944;9.796;2023-04-03T11:36:00;12.00;29.30
75819;DHT22;64453;51.944;9.796;2023-04-03T11:38:35;12.00;28.90
75819;DHT22;64453;51.944;9.796;2023-04-03T11:41:07;12.50;28.30
75819;DHT22;64453;51.944;9.796;2023-04-03T11:43:40;12.60;28.20
75819;DHT22;64453;51.944;9.796;2023-04-03T11:46:09;12.70;28.40
75819;DHT22;64453;51.944;9.796;2023-04-03T11:48:49;12.60;28.10
75819;DHT22;64453;51.944;9.796;2023-04-03T11:51:42;12.00;28.60
75819;DHT22;64453;51.944;9.796;2023-04-03T11:54:47;12.40;29.60
75819;DHT22;64453;51.944;9.796;2023-04-03T11:57:45;12.70;29.90
75819;DHT22;64453;51.944;9.796;2023-04-03T12:00:55;12.50;28.60
75819;DHT22;64453;51.944;9.796;2023-04-03T12:10:17;12.60;28.60
75819;DHT22;64453;51.944;9.796;2023-04-03T12:13:00;11.60;28.00
75819;DHT22;64453;51.944;9.796;2023-04-03T12:15:49;11.80;28.20
75819;DHT22;64453;51.944;9.796;2023-04-03T12:19:01;12.10;29.10
75819;DHT22;64453;51.944;9.796;2023-04-03T12:22:15;12.50;28.80
75819;DHT22;64453;51.944;9.796;2023-04-03T12:24:48;12.60;28.90
75819;DHT22;64453;51.944;9.796;2023-04-03T12:27:33;12.50;28.20
75819;DHT22;64453;51.944;9.796;2023-04-03T12:30:14;12.50;28.10
75819;DHT22;64453;51.944;9.796;2023-04-03T12:32:54;12.20;27.90
75819;DHT22;64453;51.944;9.796;2023-04-03T12:35:35;12.50;29.10
75819;DHT22;64453;51.944;9.796;2023-04-03T12:38:30;12.70;28.10
75819;DHT22;64453;51.944;9.796;2023-04-03T12:41:18;13.00;29.00
75819;DHT22;64453;51.944;9.796;2023-04-03T12:44:03;12.80;28.90
75819;DHT22;64453;51.944;9.796;2023-04-03T12:46:38;13.10;28.90
75819;DHT22;64453;51.944;9.796;2023-04-03T12:49:20;13.20;28.40
75819;DHT22;64453;51.944;9.796;2023-04-03T12:51:54;13.00;27.80
75819;DHT22;64453;51.944;9.796;2023-04-03T12:54:23;12.90;27.10
75819;DHT22;64453;51.944;9.796;2023-04-03T12:57:09;13.10;27.00
75819;DHT22;64453;51.944;9.796;2023-04-03T12:59:36;13.10;27.40
75819;DHT22;64453;51.944;9.796;2023-04-03T13:02:24;12.80;26.10
75819;DHT22;64453;51.944;9.796;2023-04-03T13:04:54;12.50;26.20
75819;DHT22;64453;51.944;9.796;2023-04-03T13:07:27;11.30;26.60
75819;DHT22;64453;51.944;9.796;2023-04-03T13:10:14;11.70;27.10
75819;DHT22;64453;51.944;9.796;2023-04-03T13:12:47;12.30;27.70
75819;DHT22;64453;51.944;9.796;2023-04-03T13:15:17;12.60;27.40
75819;DHT22;64453;51.944;9.796;2023-04-03T13:17:46;12.90;26.70
75819;DHT22;64453;51.944;9.796;2023-04-03T13:20:19;13.10;27.20
75819;DHT22;64453;51.944;9.796;2023-04-03T13:22:55;13.20;27.10
75819;DHT22;64453;51.944;9.796;2023-04-03T13:25:26;13.50;26.80
75819;DHT22;64453;51.944;9.796;2023-04-03T13:27:55;13.80;26.70
75819;DHT22;64453;51.944;9.796;2023-04-03T13:30:28;13.80;26.90
75819;DHT22;64453;51.944;9.796;2023-04-03T13:33:00;14.00;27.00
75819;DHT22;64453;51.944;9.796;2023-04-03T13:35:31;13.90;25.50
75819;DHT22;64453;51.944;9.796;2023-04-03T13:38:05;14.10;25.30
75819;DHT22;64453;51.944;9.796;2023-04-03T13:40:33;13.60;26.00
75819;DHT22;64453;51.944;9.796;2023-04-03T13:43:03;14.00;26.60
75819;DHT22;64453;51.944;9.796;2023-04-03T13:45:32;13.90;25.20
75819;DHT22;64453;51.944;9.796;2023-04-03T13:48:17;14.20;25.80
75819;DHT22;64453;51.944;9.796;2023-04-03T13:50:58;14.10;25.40
75819;DHT22;64453;51.944;9.796;2023-04-03T13:53:28;14.30;26.00
75819;DHT22;64453;51.944;9.796;2023-04-03T13:55:59;14.40;26.10
75819;DHT22;64453;51.944;9.796;2023-04-03T13:58:33;14.60;26.50
75819;DHT22;64453;51.944;9.796;2023-04-03T14:01:09;14.80;26.50
75819;DHT22;64453;51.944;9.796;2023-04-03T14:03:42;14.70;26.20
75819;DHT22;64453;51.944;9.796;2023-04-03T14:06:14;14.80;26.70
75819;DHT22;64453;51.944;9.796;2023-04-03T14:08:43;14.00;25.30
75819;DHT22;64453;51.944;9.796;2023-04-03T14:11:14;14.00;26.10
75819;DHT22;64453;51.944;9.796;2023-04-03T14:13:42;14.20;26.00
75819;DHT22;64453;51.944;9.796;2023-04-03T14:16:13;14.20;26.10
75819;DHT22;64453;51.944;9.796;2023-04-03T14:18:42;14.20;26.10
75819;DHT22;64453;51.944;9.796;2023-04-03T14:21:12;14.40;26.60
75819;DHT22;64453;51.944;9.796;2023-04-03T14:23:40;14.30;26.50
75819;DHT22;64453;51.944;9.796;2023-04-03T14:26:12;14.10;25.90
75819;DHT22;64453;51.944;9.796;2023-04-03T14:28:41;14.20;26.00
75819;DHT22;64453;51.944;9.796;2023-04-03T14:31:09;14.10;25.30
75819;DHT22;64453;51.944;9.796;2023-04-03T14:33:37;14.30;25.60
75819;DHT22;64453;51.944;9.796;2023-04-03T14:36:12;14.60;25.70
75819;DHT22;64453;51.944;9.796;2023-04-03T14:38:40;14.50;24.40
75819;DHT22;64453;51.944;9.796;2023-04-03T14:41:11;14.50;25.80
75819;DHT22;64453;51.944;9.796;2023-04-03T14:43:39;14.60;25.80
75819;DHT22;64453;51.944;9.796;2023-04-03T14:46:12;13.60;25.50
75819;DHT22;64453;51.944;9.796;2023-04-03T14:48:40;14.00;26.20
75819;DHT22;64453;51.944;9.796;2023-04-03T14:51:09;13.90;25.40
75819;DHT22;64453;51.944;9.796;2023-04-03T14:53:37;14.00;25.80
75819;DHT22;64453;51.944;9.796;2023-04-03T14:56:10;14.10;25.90
75819;DHT22;64453;51.944;9.796;2023-04-03T14:58:38;14.20;25.50
75819;DHT22;64453;51.944;9.796;2023-04-03T15:01:05;14.20;26.20
75819;DHT22;64453;51.944;9.796;2023-04-03T15:03:32;13.30;25.60
75819;DHT22;64453;51.944;9.796;2023-04-03T15:06:00;12.30;25.20
75819;DHT22;64453;51.944;9.796;2023-04-03T15:08:28;12.60;26.80
75819;DHT22;64453;51.944;9.796;2023-04-03T15:10:56;13.30;26.10
75819;DHT22;64453;51.944;9.796;2023-04-03T15:13:25;13.70;26.50
75819;DHT22;64453;51.944;9.796;2023-04-03T15:15:52;13.90;26.30
75819;DHT22;64453;51.944;9.796;2023-04-03T15:18:22;14.30;26.20
75819;DHT22;64453;51.944;9.796;2023-04-03T15:20:51;14.60;25.20
75819;DHT22;64453;51.944;9.796;2023-04-03T15:23:18;14.90;25.00
75819;DHT22;64453;51.944;9.796;2023-04-03T15:25:47;15.20;24.60
75819;DHT22;64453;51.944;9.796;2023-04-03T15:28:19;15.80;23.50
75819;DHT22;64453;51.944;9.796;2023-04-03T15:30:50;15.60;24.10
75819;DHT22;64453;51.944;9.796;2023-04-03T15:33:17;15.20;23.70
75819;DHT22;64453;51.944;9.796;2023-04-03T15:35:44;15.10;24.40
75819;DHT22;64453;51.944;9.796;2023-04-03T15:38:11;15.00;24.00
75819;DHT22;64453;51.944;9.796;2023-04-03T15:40:38;15.00;24.70
75819;DHT22;64453;51.944;9.796;2023-04-03T15:43:06;15.10;24.30
75819;DHT22;64453;51.944;9.796;2023-04-03T15:45:34;15.10;24.20
75819;DHT22;64453;51.944;9.796;2023-04-03T15:48:04;15.10;24.50
75819;DHT22;64453;51.944;9.796;2023-04-03T15:50:32;15.20;24.50
75819;DHT22;64453;51.944;9.796;2023-04-03T15:53:01;15.20;23.30
75819;DHT22;64453;51.944;9.796;2023-04-03T15:55:29;15.90;23.90
75819;DHT22;64453;51.944;9.796;2023-04-03T15:57:57;14.80;23.20
75819;DHT22;64453;51.944;9.796;2023-04-03T16:00:24;14.80;23.80
75819;DHT22;64453;51.944;9.796;2023-04-03T16:02:53;14.10;23.70
75819;DHT22;64453;51.944;9.796;2023-04-03T16:05:24;13.50;24.70
75819;DHT22;64453;51.944;9.796;2023-04-03T16:07:51;14.00;24.60
75819;DHT22;64453;51.944;9.796;2023-04-03T16:10:19;14.00;24.30